Time;durP1;ratioP1;P1;durP2;ratioP2;P2;SDS_P1;SDS_P2;PMS_P1;PMS_P2;Temp;Humidity;BMP_temperature;BMP_pressure;BME280_temperature;BME280_humidity;BME280_pressure;Samples;Min_cycle;Max_cycle;Signal;HPM_P1;HPM_P2
2023/04/05 00:00:11;;;;;;;6.13;2.95;;;;;;;1.40;100.00;102627.44;4994859;28;21904;-75
2023/04/05 00:02:39;;;;;;;4.43;2.95;;;;;;;1.39;100.00;102623.06;4976682;28;20389;-75
2023/04/05 00:05:07;;;;;;;6.78;3.05;;;;;;;1.36;100.00;102621.25;4990980;28;21956;-75
2023/04/05 00:07:33;;;;;;;5.38;3.00;;;;;;;1.34;100.00;102620.34;4995308;28;21649;-75
2023/04/05 00:10:00;;;;;;;6.15;2.97;;;;;;;1.32;100.00;102614.25;4993625;28;20041;-75
2023/04/05 00:12:25;;;;;;;5.78;3.00;;;;;;;1.30;100.00;102605.50;4992044;28;20973;-75
2023/04/05 00:14:51;;;;;;;7.95;3.05;;;;;;;1.29;100.00;102611.53;4993909;28;20092;-75
2023/04/05 00:17:16;;;;;;;5.15;2.90;;;;;;;1.27;100.00;102610.63;4994959;28;20176;-75
2023/04/05 00:19:43;;;;;;;6.40;2.80;;;;;;;1.27;100.00;102605.41;4991704;28;20478;-75
2023/04/05 00:22:09;;;;;;;5.50;2.92;;;;;;;1.25;100.00;102609.72;4993245;28;21496;-75
2023/04/05 00:24:42;;;;;;;8.55;3.05;;;;;;;1.25;100.00;102604.50;4979377;28;20038;-75
2023/04/05 00:27:07;;;;;;;4.77;3.00;;;;;;;1.23;100.00;102601.88;4987756;28;20618;-75
2023/04/05 00:29:33;;;;;;;4.72;2.53;;;;;;;1.24;100.00;102610.59;4991470;28;20307;-75
2023/04/05 00:31:58;;;;;;;6.95;3.17;;;;;;;1.24;100.00;102608.84;4992977;28;20396;-75
2023/04/05 00:34:24;;;;;;;4.85;3.22;;;;;;;1.22;100.00;102598.34;4995269;28;20095;-75
2023/04/05 00:36:49;;;;;;;5.00;3.08;;;;;;;1.20;100.00;102607.88;4993957;28;20942;-75
2023/04/05 00:39:15;;;;;;;5.45;3.17;;;;;;;1.21;100.00;102609.66;4992605;28;20052;-75
2023/04/05 00:41:40;;;;;;;4.60;2.90;;;;;;;1.24;100.00;102610.59;4995038;28;20044;-75
2023/04/05 00:44:06;;;;;;;6.18;2.95;;;;;;;1.22;100.00;102600.97;4992194;28;20440;-75
2023/04/05 00:46:36;;;;;;;6.07;3.13;;;;;;;1.21;100.00;102595.75;4992431;28;20053;-75
2023/04/05 00:49:02;;;;;;;5.20;2.80;;;;;;;1.19;100.00;102594.81;4993377;28;20220;-75
2023/04/05 00:51:30;;;;;;;8.70;3.10;;;;;;;1.19;100.00;102594.81;4992051;28;20691;-75
2023/04/05 00:53:56;;;;;;;6.55;2.92;;;;;;;1.17;100.00;102588.69;4991937;28;20089;-75
2023/04/05 00:56:23;;;;;;;4.32;2.83;;;;;;;1.14;100.00;102592.09;4976918;28;20049;-75
2023/04/05 00:58:50;;;;;;;4.88;3.10;;;;;;;1.12;100.00;102592.91;4972599;28;20029;-75
2023/04/05 01:01:19;;;;;;;5.03;3.00;;;;;;;1.10;100.00;102590.28;4996660;28;20061;-75
2023/04/05 01:03:48;;;;;;;5.05;2.85;;;;;;;1.08;100.00;102590.25;4982964;28;20369;-75
2023/04/05 01:06:30;;;;;;;5.78;2.83;;;;;;;1.06;100.00;102588.44;4947708;28;20535;-75
2023/04/05 01:09:26;;;;;;;5.07;3.00;;;;;;;1.05;100.00;102594.50;4996205;28;20037;-75
2023/04/05 01:11:54;;;;;;;3.28;2.40;;;;;;;1.03;100.00;102583.19;4982931;28;20811;-75
2023/04/05 01:14:20;;;;;;;6.63;2.95;;;;;;;1.00;100.00;102576.16;4981550;28;20053;-74
2023/04/05 01:16:48;;;;;;;9.32;3.50;;;;;;;0.98;100.00;102584.78;4997642;28;20037;-75
2023/04/05 01:19:15;;;;;;;6.32;3.00;;;;;;;0.94;100.00;102579.47;4995942;28;20080;-75
2023/04/05 01:22:13;;;;;;;5.50;2.95;;;;;;;0.92;100.00;102573.38;4964199;28;20038;-75
2023/04/05 01:25:01;;;;;;;5.75;2.92;;;;;;;0.89;100.00;102570.69;4979980;28;20041;-75
2023/04/05 01:28:03;;;;;;;6.50;2.78;;;;;;;0.88;100.00;102568.91;4996220;28;20957;-75
2023/04/05 01:30:41;;;;;;;6.82;3.00;;;;;;;0.88;100.00;102562.84;4980204;28;20065;-75
2023/04/05 01:33:29;;;;;;;6.85;2.95;;;;;;;0.87;100.00;102553.25;4967646;28;21211;-75
2023/04/05 01:36:09;;;;;;;7.47;3.17;;;;;;;0.86;100.00;102557.56;4956983;28;20634;-75
2023/04/05 01:38:38;;;;;;;5.22;3.13;;;;;;;0.87;100.00;102556.72;4942470;28;20044;-76
2023/04/05 01:41:03;;;;;;;7.82;3.55;;;;;;;0.87;100.00;102556.72;4974969;28;20034;-75
2023/04/05 01:43:29;;;;;;;6.05;3.15;;;;;;;0.87;100.00;102550.66;4974561;28;20056;-75
2023/04/05 01:45:54;;;;;;;5.63;3.30;;;;;;;0.85;100.00;102548.00;4994365;28;20540;-75
2023/04/05 01:48:20;;;;;;;4.82;3.17;;;;;;;0.86;100.00;102554.09;4991455;28;20397;-75
2023/04/05 01:50:46;;;;;;;4.38;2.60;;;;;;;0.85;100.00;102548.00;4991368;28;20124;-75
2023/04/05 01:53:11;;;;;;;5.47;2.80;;;;;;;0.85;100.00;102547.09;4981926;28;20041;-75
2023/04/05 01:55:37;;;;;;;5.95;3.00;;;;;;;0.81;100.00;102549.66;4989781;28;20479;-75
2023/04/05 01:58:02;;;;;;;5.22;3.08;;;;;;;0.79;100.00;102548.75;4992236;28;20033;-75
2023/04/05 02:00:28;;;;;;;5.13;2.78;;;;;;;0.79;100.00;102547.84;4993170;28;20069;-75
2023/04/05 02:02:54;;;;;;;5.90;2.95;;;;;;;0.76;100.00;102542.59;4996242;28;20498;-75
2023/04/05 02:05:19;;;;;;;9.68;3.60;;;;;;;0.75;100.00;102535.56;4976587;28;20038;-75
2023/04/05 02:07:45;;;;;;;6.47;3.22;;;;;;;0.73;100.00;102530.34;4992536;28;20045;-75
2023/04/05 02:10:10;;;;;;;6.43;3.38;;;;;;;0.72;100.00;102538.13;4975622;28;20037;-75
2023/04/05 02:12:36;;;;;;;7.03;3.22;;;;;;;0.69;100.00;102540.69;4998891;28;20666;-75
2023/04/05 02:15:02;;;;;;;5.15;3.20;;;;;;;0.66;100.00;102537.13;4997235;28;20046;-75
2023/04/05 02:17:37;;;;;;;6.95;2.92;;;;;;;0.62;100.00;102530.09;4980284;28;20030;-75
2023/04/05 02:20:07;;;;;;;7.80;3.17;;;;;;;0.60;100.00;102526.56;4997580;28;20054;-75
2023/04/05 02:22:33;;;;;;;9.18;3.60;;;;;;;0.57;100.00;102521.28;4970369;28;20402;-75
2023/04/05 02:24:58;;;;;;;5.97;3.17;;;;;;;0.56;100.00;102518.66;5000175;28;21670;-75
2023/04/05 02:27:24;;;;;;;6.38;3.15;;;;;;;0.55;100.00;102528.22;4997050;28;20040;-75
2023/04/05 02:29:50;;;;;;;7.65;3.08;;;;;;;0.52;100.00;102528.13;4997281;28;20465;-75
2023/04/05 02:32:16;;;;;;;7.15;3.30;;;;;;;0.49;100.00;102523.72;4997728;28;20163;-74
2023/04/05 02:34:42;;;;;;;6.88;3.15;;;;;;;0.47;100.00;102524.50;4997482;28;20034;-75
2023/04/05 02:37:07;;;;;;;6.22;3.38;;;;;;;0.45;100.00;102516.69;4977774;28;20029;-75
2023/04/05 02:39:33;;;;;;;6.70;3.90;;;;;;;0.43;100.00;102518.34;4995601;28;20036;-75
2023/04/05 02:41:59;;;;;;;5.78;3.50;;;;;;;0.42;100.00;102526.16;4994739;28;21080;-75
2023/04/05 02:44:24;;;;;;;6.53;3.80;;;;;;;0.39;100.00;102522.59;4965230;28;20040;-75
2023/04/05 02:46:50;;;;;;;8.02;3.30;;;;;;;0.37;100.00;102518.19;4967193;28;20411;-75
2023/04/05 02:49:15;;;;;;;6.05;3.53;;;;;;;0.34;100.00;102512.94;4995595;28;20203;-74
2023/04/05 02:51:41;;;;;;;8.18;3.80;;;;;;;0.31;100.00;102518.94;4995428;28;20631;-75
2023/04/05 02:54:06;;;;;;;7.15;3.47;;;;;;;0.29;100.00;102515.44;4979831;28;20112;-74
2023/04/05 02:56:32;;;;;;;7.28;3.80;;;;;;;0.25;100.00;102518.78;4995957;28;20046;-75
2023/04/05 02:58:57;;;;;;;11.57;4.00;;;;;;;0.22;100.00;102508.31;5000461;28;20459;-75
2023/04/05 03:01:23;;;;;;;5.90;3.30;;;;;;;0.19;100.00;102509.09;4999006;28;20417;-75
2023/04/05 03:03:49;;;;;;;6.65;3.67;;;;;;;0.15;100.00;102507.25;4971817;28;20549;-75
2023/04/05 03:06:14;;;;;;;5.85;3.58;;;;;;;0.14;100.00;102508.09;4993365;28;20041;-75
2023/04/05 03:08:45;;;;;;;8.10;3.38;;;;;;;0.13;100.00;102511.56;4970976;28;20042;-75
2023/04/05 03:11:11;;;;;;;5.95;3.17;;;;;;;0.11;100.00;102500.22;5000949;28;20056;-75
2023/04/05 03:13:36;;;;;;;10.23;3.50;;;;;;;0.09;100.00;102497.59;5007831;28;20253;-75
2023/04/05 03:16:03;;;;;;;8.40;3.97;;;;;;;0.08;100.00;102495.81;4988395;28;20033;-75
2023/04/05 03:18:28;;;;;;;7.93;4.00;;;;;;;0.09;100.00;102501.91;4982961;28;20041;-75
2023/04/05 03:20:55;;;;;;;15.80;4.20;;;;;;;0.10;100.00;102501.94;4967926;28;20044;-75
2023/04/05 03:23:25;;;;;;;6.03;3.72;;;;;;;0.08;100.00;102495.81;4986397;28;20053;-75
2023/04/05 03:26:09;;;;;;;9.90;4.07;;;;;;;0.09;100.00;102501.91;4982250;28;20064;-75
2023/04/05 03:28:35;;;;;;;7.65;4.20;;;;;;;0.08;100.00;102495.81;4985046;28;20041;-75
2023/04/05 03:31:00;;;;;;;7.30;3.30;;;;;;;0.10;100.00;102486.31;4978056;28;20146;-75
2023/04/05 03:33:26;;;;;;;9.27;4.50;;;;;;;0.07;100.00;102480.16;4997113;28;20479;-75
2023/04/05 03:35:51;;;;;;;8.95;4.13;;;;;;;0.06;100.00;102479.25;4978085;28;20184;-75
2023/04/05 03:38:17;;;;;;;6.85;3.63;;;;;;;0.04;100.00;102491.38;4996242;28;20100;-75
2023/04/05 03:40:42;;;;;;;6.80;3.85;;;;;;;0.04;100.00;102493.13;4968492;28;20029;-75
2023/04/05 03:43:08;;;;;;;7.50;4.40;;;;;;;0.01;100.00;102485.19;4995296;28;20368;-75
2023/04/05 03:45:33;;;;;;;9.45;4.18;;;;;;;0.02;100.00;102489.56;4983357;28;20037;-75
2023/04/05 03:47:59;;;;;;;9.88;4.05;;;;;;;0.02;100.00;102490.47;4981886;28;21194;-75
2023/04/05 03:50:25;;;;;;;9.52;4.57;;;;;;;0.02;100.00;102487.84;4982006;28;20165;-75
2023/04/05 03:52:51;;;;;;;8.43;4.32;;;;;;;0.01;100.00;102486.09;4978755;28;20460;-75
2023/04/05 03:55:17;;;;;;;9.60;4.65;;;;;;;0.01;100.00;102487.81;4995572;28;20037;-75
2023/04/05 03:57:43;;;;;;;8.95;4.80;;;;;;;-0.01;100.00;102490.38;4996749;28;20280;-75
2023/04/05 04:00:16;;;;;;;8.77;4.50;;;;;;;-0.03;100.00;102481.63;4992666;28;20048;-75
2023/04/05 04:02:49;;;;;;;9.40;4.18;;;;;;;-0.05;100.00;102485.94;4997551;28;20515;-75
2023/04/05 04:05:16;;;;;;;7.78;4.45;;;;;;;-0.07;100.00;102490.19;4984163;28;20041;-75
2023/04/05 04:07:42;;;;;;;7.38;4.55;;;;;;;-0.09;100.00;102484.09;4996487;28;20037;-75
2023/04/05 04:10:09;;;;;;;10.57;4.82;;;;;;;-0.11;100.00;102485.78;4998652;28;20042;-75
2023/04/05 04:12:35;;;;;;;8.95;5.00;;;;;;;-0.15;100.00;102483.09;4981437;28;20046;-75
2023/04/05 04:15:01;;;;;;;9.32;4.63;;;;;;;-0.17;100.00;102474.34;4977127;28;20576;-75
2023/04/05 04:17:26;;;;;;;10.85;4.78;;;;;;;-0.18;100.00;102475.22;4952322;28;20153;-75
2023/04/05 04:19:52;;;;;;;7.60;4.65;;;;;;;-0.19;100.00;102473.44;4977596;28;20151;-75
2023/04/05 04:22:19;;;;;;;8.52;4.68;;;;;;;-0.20;100.00;102476.91;4975087;28;20038;-75
2023/04/05 04:24:48;;;;;;;11.75;5.72;;;;;;;-0.22;100.00;102478.56;4977698;28;20041;-75
2023/04/05 04:27:18;;;;;;;11.68;5.28;;;;;;;-0.23;100.00;102474.19;4961563;28;20046;-75
2023/04/05 04:29:46;;;;;;;11.85;5.40;;;;;;;-0.23;100.00;102475.94;4975633;28;20650;-75
2023/04/05 04:32:15;;;;;;;9.32;5.45;;;;;;;-0.26;100.00;102471.53;4976305;28;20045;-74
2023/04/05 04:34:45;;;;;;;11.25;5.05;;;;;;;-0.27;100.00;102472.38;4978517;28;20043;-75
2023/04/05 04:37:16;;;;;;;10.57;5.28;;;;;;;-0.31;100.00;102475.72;4981913;28;20120;-75
2023/04/05 04:39:45;;;;;;;11.13;6.03;;;;;;;-0.33;100.00;102478.28;4979685;28;20057;-75
2023/04/05 04:42:10;;;;;;;12.32;5.10;;;;;;;-0.34;100.00;102473.94;4980639;28;20128;-75
2023/04/05 04:44:36;;;;;;;12.40;5.80;;;;;;;-0.36;100.00;102477.31;4964677;28;20389;-75
2023/04/05 04:47:01;;;;;;;8.52;5.40;;;;;;;-0.37;100.00;102465.16;4994057;28;20041;-75
2023/04/05 04:49:29;;;;;;;11.15;5.60;;;;;;;-0.38;100.00;102476.41;4965932;28;20049;-75
2023/04/05 04:51:57;;;;;;;9.18;5.53;;;;;;;-0.39;100.00;102470.31;4977929;28;20034;-75
2023/04/05 04:54:22;;;;;;;11.38;6.22;;;;;;;-0.39;100.00;102472.91;4981378;28;20165;-75
2023/04/05 04:56:48;;;;;;;11.40;5.72;;;;;;;-0.40;100.00;102471.16;4963389;28;20038;-75
2023/04/05 04:59:14;;;;;;;13.13;6.22;;;;;;;-0.40;100.00;102465.09;4979637;28;20061;-75
2023/04/05 05:01:42;;;;;;;11.25;5.57;;;;;;;-0.40;100.00;102475.50;4996007;28;20061;-75
2023/04/05 05:04:07;;;;;;;10.52;5.97;;;;;;;-0.40;100.00;102476.38;4982856;28;20060;-75
2023/04/05 05:06:33;;;;;;;12.02;5.72;;;;;;;-0.40;100.00;102478.97;4983578;28;20038;-75
2023/04/05 05:09:00;;;;;;;13.05;6.70;;;;;;;-0.39;100.00;102464.25;4980549;28;20134;-75
2023/04/05 05:11:27;;;;;;;12.13;6.53;;;;;;;-0.39;100.00;102467.72;4987724;28;20054;-75
2023/04/05 05:13:53;;;;;;;13.18;6.20;;;;;;;-0.37;100.00;102466.06;4987271;28;20050;-75
2023/04/05 05:16:20;;;;;;;12.73;6.50;;;;;;;-0.36;100.00;102464.31;4988685;28;20052;-75
2023/04/05 05:18:47;;;;;;;11.98;5.95;;;;;;;-0.37;100.00;102470.38;4968156;28;20138;-75
2023/04/05 05:21:13;;;;;;;10.35;6.05;;;;;;;-0.36;100.00;102470.41;4982312;28;20025;-75
2023/04/05 05:23:38;;;;;;;11.68;6.43;;;;;;;-0.34;100.00;102467.81;4985767;28;20037;-75
2023/04/05 05:26:05;;;;;;;14.55;7.35;;;;;;;-0.33;100.00;102469.63;4985422;28;20037;-75
2023/04/05 05:28:30;;;;;;;16.60;7.00;;;;;;;-0.33;100.00;102467.00;4998651;28;20036;-75
2023/04/05 05:30:56;;;;;;;13.30;6.80;;;;;;;-0.30;100.00;102465.38;4996028;28;21567;-75
2023/04/05 05:33:21;;;;;;;14.13;7.03;;;;;;;-0.28;100.00;102462.78;4992816;28;21649;-75
2023/04/05 05:35:48;;;;;;;13.82;6.80;;;;;;;-0.26;100.00;102457.63;5000968;28;20783;-75
2023/04/05 05:38:13;;;;;;;14.82;6.82;;;;;;;-0.26;100.00;102453.31;4994547;28;20041;-75
2023/04/05 05:40:39;;;;;;;15.75;7.20;;;;;;;-0.24;100.00;102451.63;4992588;28;20041;-75
2023/04/05 05:43:05;;;;;;;13.85;6.72;;;;;;;-0.22;100.00;102452.53;4978622;28;20211;-75
2023/04/05 05:45:31;;;;;;;16.40;7.00;;;;;;;-0.22;100.00;102452.53;4994457;28;20041;-75
2023/04/05 05:47:57;;;;;;;13.43;7.15;;;;;;;-0.19;100.00;102450.03;4978612;28;20052;-75
2023/04/05 05:50:22;;;;;;;14.70;6.55;;;;;;;-0.16;100.00;102449.22;4981342;28;20033;-75
2023/04/05 05:52:48;;;;;;;11.63;6.22;;;;;;;-0.11;100.00;102467.56;4947736;28;20908;-75
2023/04/05 05:55:13;;;;;;;12.52;6.50;;;;;;;-0.10;100.00;102458.91;4981573;28;20038;-74
2023/04/05 05:57:39;;;;;;;11.98;6.93;;;;;;;-0.06;100.00;102455.53;4979494;28;20115;-75
2023/04/05 06:00:09;;;;;;;13.50;6.97;;;;;;;-0.04;100.00;102453.84;4993977;28;20301;-75
2023/04/05 06:02:35;;;;;;;13.75;6.38;;;;;;;-0.01;100.00;102461.72;4966462;28;20037;-75
2023/04/05 06:05:01;;;;;;;16.08;7.32;;;;;;;0.01;100.00;102466.97;4981872;28;20029;-75
2023/04/05 06:07:26;;;;;;;14.20;6.78;;;;;;;0.05;100.00;102464.47;4996293;28;20033;-75
2023/04/05 06:09:52;;;;;;;12.27;6.53;;;;;;;0.08;100.00;102461.97;4997560;28;20045;-75
2023/04/05 06:12:20;;;;;;;11.88;6.25;;;;;;;0.12;100.00;102465.53;4995763;28;20060;-75
2023/04/05 06:14:45;;;;;;;10.93;6.28;;;;;;;0.16;100.00;102466.47;4982114;28;20049;-75
2023/04/05 06:17:11;;;;;;;13.75;6.95;;;;;;;0.18;100.00;102470.88;4996500;28;20041;-75
2023/04/05 06:19:36;;;;;;;11.38;6.70;;;;;;;0.22;100.00;102469.22;5006256;28;20412;-76
2023/04/05 06:22:02;;;;;;;13.50;6.60;;;;;;;0.26;100.00;102476.25;4964787;28;20390;-78
2023/04/05 06:24:30;;;;;;;11.75;6.70;;;;;;;0.31;100.00;102468.53;4979949;28;20038;-78
2023/04/05 06:26:57;;;;;;;13.13;7.30;;;;;;;0.35;100.00;102471.28;4983069;28;20026;-78
2023/04/05 06:29:23;;;;;;;13.18;6.80;;;;;;;0.39;100.00;102467.03;4994514;28;20046;-79
2023/04/05 06:31:49;;;;;;;16.73;7.22;;;;;;;0.44;100.00;102467.13;4974654;28;20030;-78
2023/04/05 06:34:15;;;;;;;16.70;7.72;;;;;;;0.49;100.00;102470.72;4986066;28;20034;-78
2023/04/05 06:36:40;;;;;;;16.23;7.25;;;;;;;0.54;100.00;102469.06;4985022;28;20119;-78
2023/04/05 06:39:06;;;;;;;16.10;7.25;;;;;;;0.58;100.00;102465.69;4996146;28;20030;-78
2023/04/05 06:41:31;;;;;;;16.75;7.35;;;;;;;0.65;100.00;102469.34;4997240;28;20053;-78
2023/04/05 06:43:57;;;;;;;16.85;7.40;;;;;;;0.72;100.00;102472.94;4997273;28;20180;-78
2023/04/05 06:46:22;;;;;;;15.20;7.53;;;;;;;0.77;100.00;102466.13;4997242;28;20195;-78
2023/04/05 06:48:49;;;;;;;16.02;7.43;;;;;;;0.85;100.00;102456.72;4983391;28;20117;-78
2023/04/05 06:51:14;;;;;;;14.93;7.78;;;;;;;0.96;100.00;102467.38;4982653;28;20156;-77
2023/04/05 06:53:40;;;;;;;13.95;7.20;;;;;;;1.10;100.00;102457.22;4995958;28;20042;-78
2023/04/05 06:56:06;;;;;;;14.40;7.07;;;;;;;1.23;100.00;102471.38;4997561;28;20042;-78
2023/04/05 06:58:32;;;;;;;15.32;7.88;;;;;;;1.31;100.00;102471.53;4992380;28;20042;-79
2023/04/05 07:00:59;;;;;;;13.95;7.47;;;;;;;1.34;100.00;102467.25;4973052;28;20037;-79
2023/04/05 07:03:25;;;;;;;14.27;7.35;;;;;;;1.41;100.00;102464.78;4982872;28;20042;-76
2023/04/05 07:05:52;;;;;;;14.38;7.63;;;;;;;1.47;100.00;102470.13;4985453;28;20030;-76
2023/04/05 07:08:21;;;;;;;14.57;7.15;;;;;;;1.56;100.00;102469.38;4988484;28;20065;-77
2023/04/05 07:10:48;;;;;;;15.73;7.97;;;;;;;1.64;100.00;102467.81;5001973;28;20744;-76
2023/04/05 07:13:13;;;;;;;13.68;7.63;;;;;;;1.69;100.00;102467.88;4983917;28;20932;-76
2023/04/05 07:15:39;;;;;;;13.43;7.22;;;;;;;1.73;100.00;102467.97;5000711;28;20033;-75
2023/04/05 07:18:04;;;;;;;18.50;8.43;;;;;;;1.81;100.00;102464.59;5000189;28;20608;-76
2023/04/05 07:20:30;;;;;;;16.10;8.27;;;;;;;1.89;100.00;102463.00;5016926;28;20041;-76
2023/04/05 07:22:57;;;;;;;17.13;8.00;;;;;;;1.96;100.00;102459.63;5013093;28;20033;-76
2023/04/05 07:25:23;;;;;;;16.85;8.25;;;;;;;2.05;100.00;102455.44;5025748;28;20034;-76
2023/04/05 07:27:48;;;;;;;15.30;7.75;;;;;;;2.13;100.00;102457.28;4968991;28;20042;-76
2023/04/05 07:30:14;;;;;;;15.40;8.32;;;;;;;2.20;100.00;102460.88;4966984;28;20061;-76
2023/04/05 07:32:40;;;;;;;15.30;8.18;;;;;;;2.29;100.00;102462.78;5001462;28;20081;-76
2023/04/05 07:35:06;;;;;;;15.95;8.52;;;;;;;2.37;100.00;102458.53;5015161;28;20057;-76
2023/04/05 07:37:31;;;;;;;17.35;8.43;;;;;;;2.44;100.00;102464.72;4982965;28;20064;-76
2023/04/05 07:39:57;;;;;;;16.55;8.57;;;;;;;2.52;100.00;102460.50;5018191;28;20540;-76
2023/04/05 07:42:23;;;;;;;16.80;8.38;;;;;;;2.61;100.00;102458.88;5008784;28;20048;-75
2023/04/05 07:44:48;;;;;;;15.50;8.15;;;;;;;2.69;100.00;102452.88;4999138;28;20040;-76
2023/04/05 07:47:14;;;;;;;15.57;8.18;;;;;;;2.75;100.00;102451.19;4996850;28;21366;-76
2023/04/05 07:49:40;;;;;;;13.40;7.85;;;;;;;2.80;100.00;102454.75;4992745;28;20017;-76
2023/04/05 07:52:06;;;;;;;13.98;8.13;;;;;;;2.85;100.00;102446.09;4990594;28;20072;-75
2023/04/05 07:54:37;;;;;;;14.68;7.80;;;;;;;2.90;100.00;102450.50;5007696;28;20833;-75
2023/04/05 07:57:03;;;;;;;12.50;7.75;;;;;;;2.92;100.00;102448.78;5006531;28;21156;-76
2023/04/05 07:59:28;;;;;;;15.55;8.07;;;;;;;2.97;100.00;102454.97;4994067;28;20045;-76
2023/04/05 08:01:54;;;;;;;13.93;7.43;;;;;;;3.04;100.00;102463.78;5008517;28;20042;-76
2023/04/05 08:04:19;;;;;;;15.38;8.02;;;;;;;3.12;100.00;102455.13;4990535;28;20030;-76
2023/04/05 08:06:46;;;;;;;13.40;7.22;;;;;;;3.25;100.00;102458.78;4996650;28;20738;-76
2023/04/05 08:09:12;;;;;;;13.75;7.35;;;;;;;3.35;100.00;102454.53;5009069;28;20026;-76
2023/04/05 08:11:38;;;;;;;13.15;7.90;;;;;;;3.47;100.00;102458.13;5008192;28;20041;-76
2023/04/05 08:14:04;;;;;;;11.15;6.97;;;;;;;3.57;100.00;102459.97;4994030;28;20116;-75
2023/04/05 08:16:29;;;;;;;11.93;7.20;;;;;;;3.69;100.00;102458.34;5005195;28;20034;-75
2023/04/05 08:18:55;;;;;;;12.40;6.82;;;;;;;3.80;100.00;102444.47;4993686;28;20049;-75
2023/04/05 08:21:21;;;;;;;9.93;6.72;;;;;;;3.91;100.00;102449.81;5006115;28;20060;-75
2023/04/05 08:23:48;;;;;;;11.55;6.40;;;;;;;3.97;100.00;102442.88;4978370;28;20384;-75
2023/04/05 08:26:15;;;;;;;12.23;7.15;;;;;;;4.02;100.00;102444.66;5005748;28;20049;-75
2023/04/05 08:28:41;;;;;;;13.10;6.97;;;;;;;4.10;100.00;102433.34;4993702;28;20695;-76
2023/04/05 08:31:06;;;;;;;10.98;6.43;;;;;;;4.18;100.00;102435.16;5004605;28;20045;-75
2023/04/05 08:33:32;;;;;;;9.20;6.10;;;;;;;4.27;100.00;102446.56;5006542;28;20068;-75
2023/04/05 08:36:03;;;;;;;10.75;5.95;;;;;;;4.34;100.00;102441.38;5007518;28;20042;-75
2023/04/05 08:38:29;;;;;;;11.88;6.90;;;;;;;4.47;100.00;102433.59;5000829;28;20033;-75
2023/04/05 08:40:54;;;;;;;11.45;6.70;;;;;;;4.53;100.00;102438.84;5003071;28;20389;-75
2023/04/05 08:43:51;;;;;;;8.45;6.07;;;;;;;4.62;100.00;102438.00;5003911;28;20378;-75
2023/04/05 08:46:17;;;;;;;11.57;6.25;;;;;;;4.67;100.00;102433.69;5004941;28;20061;-75
2023/04/05 08:48:43;;;;;;;9.68;6.07;;;;;;;4.71;100.00;102432.84;5002113;28;20029;-74
2023/04/05 08:51:09;;;;;;;10.05;6.07;;;;;;;4.77;100.00;102429.34;5005923;28;20041;-75
2023/04/05 08:53:35;;;;;;;10.07;6.07;;;;;;;4.83;100.00;102431.13;5004765;28;20045;-75
2023/04/05 08:56:01;;;;;;;11.02;6.15;;;;;;;4.91;100.00;102425.91;5007772;28;20030;-75
2023/04/05 08:58:27;;;;;;;11.60;6.72;;;;;;;4.99;100.00;102426.81;4992948;28;20496;-75
2023/04/05 09:00:54;;;;;;;11.65;6.60;;;;;;;5.09;100.00;102422.47;4963931;28;20562;-75
2023/04/05 09:03:22;;;;;;;9.93;6.35;;;;;;;5.22;100.00;102419.00;4998518;28;20030;-75
2023/04/05 09:05:50;;;;;;;10.35;6.13;;;;;;;5.36;100.00;102421.66;4993056;28;20524;-75
2023/04/05 09:08:16;;;;;;;10.52;6.55;;;;;;;5.48;100.00;102419.91;4996923;28;20056;-75
2023/04/05 09:10:41;;;;;;;12.35;7.00;;;;;;;5.65;100.00;102428.69;5002617;28;20248;-76
2023/04/05 09:13:09;;;;;;;11.32;6.70;;;;;;;5.84;100.00;102419.06;5004986;28;20125;-75
2023/04/05 09:15:36;;;;;;;9.90;6.43;;;;;;;6.04;100.00;102420.81;4981306;28;20061;-75
2023/04/05 09:18:02;;;;;;;9.40;5.63;;;;;;;6.23;100.00;102418.19;5010025;28;20033;-76
2023/04/05 09:20:28;;;;;;;8.82;5.90;;;;;;;6.44;100.00;102419.00;5005544;28;20030;-75
2023/04/05 09:22:55;;;;;;;10.75;5.43;;;;;;;6.51;100.00;102420.72;5006748;28;20038;-75
2023/04/05 09:25:35;;;;;;;9.82;5.75;;;;;;;6.64;98.74;102418.91;5007809;28;20038;-76
2023/04/05 09:28:02;;;;;;;11.50;6.22;;;;;;;6.75;98.26;102418.91;5007055;28;20042;-75
2023/04/05 09:30:27;;;;;;;9.15;5.63;;;;;;;6.81;96.79;102418.00;4991753;28;20041;-76
2023/04/05 09:32:54;;;;;;;9.48;5.40;;;;;;;6.91;96.81;102410.03;4989663;28;20059;-75
2023/04/05 09:35:24;;;;;;;9.35;5.03;;;;;;;7.02;95.41;102404.72;4963668;28;20048;-75
2023/04/05 09:37:57;;;;;;;8.52;4.38;;;;;;;7.06;93.92;102402.94;4990872;28;20037;-75
2023/04/05 09:40:24;;;;;;;8.57;4.80;;;;;;;7.14;94.59;102401.13;5004295;28;20437;-75
2023/04/05 09:42:52;;;;;;;9.50;5.07;;;;;;;7.17;92.76;102401.13;5003049;28;20098;-76
2023/04/05 09:45:17;;;;;;;7.75;4.63;;;;;;;7.13;92.22;102402.03;5025837;28;21605;-75
2023/04/05 09:47:52;;;;;;;8.48;5.25;;;;;;;7.20;91.46;102403.72;4983715;28;20080;-75
2023/04/05 09:50:19;;;;;;;7.57;4.75;;;;;;;7.27;93.27;102401.94;5001801;28;20057;-75
2023/04/05 09:52:45;;;;;;;8.88;4.82;;;;;;;7.28;92.01;102402.81;5005704;28;20111;-74
2023/04/05 09:55:11;;;;;;;6.85;4.70;;;;;;;7.20;90.51;102395.81;4965135;28;20471;-75
2023/04/05 09:57:38;;;;;;;7.75;4.85;;;;;;;7.08;88.68;102406.44;5005793;28;20527;-75
2023/04/05 10:00:04;;;;;;;7.95;4.63;;;;;;;7.03;89.11;102406.47;5005978;28;20543;-75
2023/04/05 10:02:38;;;;;;;9.07;4.70;;;;;;;7.05;86.90;102394.19;4992516;28;20037;-75
2023/04/05 10:05:11;;;;;;;11.27;5.00;;;;;;;7.05;87.34;102388.91;4992130;28;20040;-75
2023/04/05 10:07:36;;;;;;;;;;;;;;;7.02;81.48;102388.91;4992829;28;20041;-75
2023/04/05 10:10:02;;;;;;;6.97;3.90;;;;;;;7.03;86.06;102395.06;5018377;28;19977;-75
2023/04/05 10:12:28;;;;;;;8.00;4.18;;;;;;;6.96;84.88;102390.72;5007824;28;20093;-75
2023/04/05 10:14:57;;;;;;;7.60;4.50;;;;;;;6.90;84.58;102384.59;4994367;28;20042;-75
2023/04/05 10:17:26;;;;;;;7.30;4.10;;;;;;;6.88;83.09;102381.13;5010179;28;20044;-76
2023/04/05 10:20:04;;;;;;;6.38;3.97;;;;;;;6.99;83.99;102385.44;5011868;28;20044;-75
2023/04/05 10:22:49;;;;;;;7.05;4.55;;;;;;;7.07;80.90;102379.25;5008189;28;20029;-75
2023/04/05 10:25:21;;;;;;;7.18;4.45;;;;;;;7.00;79.87;102377.53;5010256;28;20504;-75
2023/04/05 10:27:52;;;;;;;7.13;3.55;;;;;;;6.91;77.86;102377.56;4995060;28;20021;-75
2023/04/05 10:30:18;;;;;;;9.13;4.35;;;;;;;6.87;80.22;102374.06;5013497;28;20087;-75
2023/04/05 10:33:06;;;;;;;8.38;4.38;;;;;;;6.90;78.17;102374.06;5015295;28;20033;-78
2023/04/05 10:35:48;;;;;;;9.00;3.97;;;;;;;6.98;78.92;102381.03;4974505;28;20045;-77
2023/04/05 10:38:27;;;;;;;6.25;3.88;;;;;;;7.02;75.23;102378.38;5001136;28;20041;-78
2023/04/05 10:40:56;;;;;;;8.63;3.65;;;;;;;7.10;75.08;102364.28;4975113;28;20824;-75
2023/04/05 10:43:24;;;;;;;5.75;3.88;;;;;;;7.17;75.68;102369.53;4995658;28;20114;-77
2023/04/05 10:45:52;;;;;;;6.50;3.67;;;;;;;7.19;72.86;102366.84;4999024;28;20246;-76
2023/04/05 10:48:28;;;;;;;6.68;3.78;;;;;;;7.20;72.43;102358.94;4967544;28;20049;-76
2023/04/05 10:50:55;;;;;;;5.55;3.30;;;;;;;7.22;74.49;102361.56;4974507;28;20069;-76
2023/04/05 10:53:21;;;;;;;5.97;3.60;;;;;;;7.21;72.65;102359.84;4996812;28;20041;-76
2023/04/05 10:55:48;;;;;;;6.43;3.53;;;;;;;7.14;71.78;102355.50;4977199;28;20038;-77
2023/04/05 10:58:14;;;;;;;6.35;3.67;;;;;;;7.10;70.98;102356.38;4992774;28;20038;-76
2023/04/05 11:00:40;;;;;;;5.68;3.97;;;;;;;7.09;73.60;102347.63;4980883;28;21191;-76
2023/04/05 11:03:06;;;;;;;5.45;3.60;;;;;;;7.07;72.92;102346.75;4968309;28;20034;-76
2023/04/05 11:05:36;;;;;;;6.68;3.70;;;;;;;7.04;71.25;102341.50;4995604;28;20772;-76
2023/04/05 11:08:04;;;;;;;5.47;3.30;;;;;;;7.14;69.53;102347.59;4984346;28;20033;-76
2023/04/05 11:10:33;;;;;;;5.88;3.38;;;;;;;7.30;69.71;102338.69;4996572;28;20037;-76
2023/04/05 11:12:59;;;;;;;6.20;3.88;;;;;;;7.44;70.29;102335.94;4980616;28;20159;-76
2023/04/05 11:15:26;;;;;;;6.40;3.70;;;;;;;7.52;69.88;102345.53;4997678;28;20148;-76
2023/04/05 11:18:05;;;;;;;5.72;3.47;;;;;;;7.54;68.99;102336.75;4986562;28;20036;-76
2023/04/05 11:20:50;;;;;;;6.93;4.18;;;;;;;7.42;68.54;102342.13;4978129;28;20548;-76
2023/04/05 11:23:18;;;;;;;5.65;3.25;;;;;;;7.41;69.81;102332.47;4979483;28;20159;-76